Mineral Wells, Texas
Current Conditions -  °F | °C
As of 6:53 PM on Wednesday 22 Oct 2014 (Local Time) from KMWL Reporting Station
Few Clouds Few Clouds  
Wind Chill: 74°   Ceiling: Unl
Heat Index: 74°   Visibility: 10mi
Dew Point: 56°   Wind: 0mph
Humidity: 53%   Direction: NA
Pressure: 30.08"   Gusts: NA
Location:  32.81°N, 98.07°W
Report Text: KMWL 222353Z AUTO 00000KT 10SM FEW120 23/13 A3008 RMK AO2 SLP176 T02330133 10267 20228 53003
Loading
Personal Weather Stations






























Interactive Weather Map
Tropical Storm Tracking
New forecast layout! Learn more

10-Day Weather Forecast

Advertisements
Track Severe Weather on mobile